Terminal Aerodrome Forecast
Issued by NWS

Home | Current Version | Previous Version | Graphics & Text | Print | Product List | Glossary On
Versions: 1 2 3 4 5 6 7 8 9 10 11 12 13 14 15 16
776
FTUS43 KGRB 270520
TAFATW
TAF
KATW 270520Z 2706/2806 25011KT P6SM SCT050 BKN080
     FM271400 27015G23KT P6SM BKN040
     FM271800 28013G21KT P6SM -SHRA OVC025
     FM272100 28012G20KT 5SM -SHRA BR OVC015
     FM280100 30009KT 5SM -SHRA BR BKN005 OVC010=

USA.gov is the U.S. government's official web portal to all federal, state and local government web resources and services.